Time;durP1;ratioP1;P1;durP2;ratioP2;P2;SDS_P1;SDS_P2;PMS_P1;PMS_P2;Temp;Humidity;BMP_temperature;BMP_pressure;BME280_temperature;BME280_humidity;BME280_pressure;Samples;Min_cycle;Max_cycle;Signal;HPM_P1;HPM_P2
2022/05/10 00:01:34;;;;;;;3.70;2.60;;;;;;;21.39;33.50;95544.00;6205872;28;103938;-56
2022/05/10 00:04:36;;;;;;;3.33;2.63;;;;;;;21.40;33.95;95545.56;6196249;28;104007;-56
2022/05/10 00:07:38;;;;;;;2.87;2.47;;;;;;;21.39;33.64;95543.19;6197934;28;104103;-56
2022/05/10 00:10:40;;;;;;;2.63;2.43;;;;;;;21.38;33.55;95531.75;6203347;28;105037;-56
2022/05/10 00:13:43;;;;;;;2.47;2.27;;;;;;;21.39;33.77;95529.88;6203465;28;104101;-56
2022/05/10 00:16:45;;;;;;;3.13;2.50;;;;;;;21.39;33.59;95532.56;6180443;28;104781;-56
2022/05/10 00:19:47;;;;;;;2.80;2.60;;;;;;;21.38;33.90;95537.09;6202685;28;104895;-56
2022/05/10 00:22:49;;;;;;;2.97;2.63;;;;;;;21.38;33.86;95526.44;6205596;28;105152;-57
2022/05/10 00:25:50;;;;;;;2.50;2.30;;;;;;;21.38;33.67;95521.13;6185202;28;104028;-56
2022/05/10 00:28:52;;;;;;;2.50;2.27;;;;;;;21.37;33.74;95524.84;6194873;28;103688;-56
2022/05/10 00:31:54;;;;;;;2.70;2.50;;;;;;;21.38;33.99;95528.31;6206479;28;103837;-56
2022/05/10 00:34:55;;;;;;;3.07;2.77;;;;;;;21.34;33.76;95529.94;6185072;28;104706;-57
2022/05/10 00:38:00;;;;;;;3.87;2.83;;;;;;;21.33;34.06;95526.50;6156960;28;104000;-56
2022/05/10 00:41:12;;;;;;;2.60;2.40;;;;;;;21.33;33.83;95526.50;6197545;28;104184;-56
2022/05/10 00:44:49;;;;;;;2.97;2.30;;;;;;;21.32;33.68;95516.94;6187065;28;104911;-56
2022/05/10 00:48:04;;;;;;;3.70;2.50;;;;;;;21.33;33.56;95521.16;6183679;28;103696;-56
2022/05/10 00:51:30;;;;;;;3.80;2.30;;;;;;;21.32;33.86;95526.78;6176754;28;103857;-56
2022/05/10 00:54:46;;;;;;;2.60;2.40;;;;;;;21.29;34.07;95509.53;6197070;28;105333;-56
2022/05/10 00:57:56;;;;;;;2.93;2.40;;;;;;;21.29;33.69;95512.19;6197861;28;103222;-56
2022/05/10 01:01:00;;;;;;;3.20;2.57;;;;;;;21.32;33.29;95516.94;6196587;28;104380;-56
2022/05/10 01:04:25;;;;;;;2.60;2.40;;;;;;;21.31;33.38;95525.19;6206122;28;103715;-56
2022/05/10 01:07:32;;;;;;;2.90;2.20;;;;;;;21.27;33.19;95526.88;6195131;28;103692;-56
2022/05/10 01:10:42;;;;;;;2.17;1.97;;;;;;;21.26;33.14;95522.63;6201733;28;106286;-56
2022/05/10 01:14:16;;;;;;;2.00;1.90;;;;;;;21.27;33.02;95519.66;6191655;28;103699;-56
2022/05/10 01:17:18;;;;;;;2.17;1.97;;;;;;;21.26;33.30;95518.09;6207740;28;103629;-56
2022/05/10 01:20:28;;;;;;;2.60;2.30;;;;;;;21.23;33.46;95508.03;6206026;28;103771;-56
2022/05/10 01:24:02;;;;;;;2.17;1.90;;;;;;;21.27;33.29;95508.22;6183335;28;104567;-55
2022/05/10 01:27:34;;;;;;;2.00;1.90;;;;;;;21.25;33.11;95508.53;6183573;28;103938;-56
2022/05/10 01:30:37;;;;;;;2.10;1.90;;;;;;;21.25;33.31;95508.53;6200182;28;104355;-56
2022/05/10 01:33:54;;;;;;;2.03;1.87;;;;;;;21.22;33.39;95506.44;6188476;28;103859;-56
2022/05/10 01:37:00;;;;;;;2.63;2.43;;;;;;;21.20;33.13;95508.59;6179102;28;104866;-55
2022/05/10 01:40:12;;;;;;;2.43;1.90;;;;;;;21.18;33.13;95516.09;6205704;28;103582;-57
2022/05/10 01:43:34;;;;;;;2.87;1.87;;;;;;;21.19;33.13;95507.81;6203858;28;103963;-57
2022/05/10 01:46:36;;;;;;;4.30;2.37;;;;;;;21.22;32.92;95509.09;6189452;28;103974;-57
2022/05/10 01:49:44;;;;;;;3.23;2.50;;;;;;;21.23;33.08;95508.03;6205143;28;103898;-57
2022/05/10 01:52:58;;;;;;;3.40;2.77;;;;;;;21.24;33.63;95508.81;6203122;28;103969;-56
2022/05/10 01:56:04;;;;;;;3.40;3.10;;;;;;;21.22;33.76;95503.78;6206428;28;104869;-56
2022/05/10 01:59:05;;;;;;;2.83;2.47;;;;;;;21.18;33.23;95506.22;6198098;28;103814;-57
2022/05/10 02:02:09;;;;;;;3.10;2.80;;;;;;;21.14;33.33;95507.06;6203838;28;105210;-56
2022/05/10 02:05:19;;;;;;;2.80;2.47;;;;;;;21.18;33.41;95502.78;6199072;28;103882;-56
2022/05/10 02:08:29;;;;;;;2.50;2.30;;;;;;;21.18;33.39;95494.81;6194566;28;103624;-56
2022/05/10 02:11:36;;;;;;;3.17;2.80;;;;;;;21.20;33.23;95500.63;6193037;28;104955;-56
2022/05/10 02:14:40;;;;;;;4.37;2.37;;;;;;;21.19;33.12;95499.03;6195783;28;104117;-56
2022/05/10 02:17:48;;;;;;;3.43;2.27;;;;;;;21.21;33.33;95507.53;6204617;28;103343;-55
2022/05/10 02:21:03;;;;;;;2.70;2.50;;;;;;;21.23;33.13;95507.22;6195213;28;104756;-56
2022/05/10 02:24:12;;;;;;;2.93;2.67;;;;;;;21.19;33.11;95501.69;6186544;28;104153;-56
2022/05/10 02:27:26;;;;;;;4.70;2.50;;;;;;;21.17;33.39;95498.50;6202213;28;103643;-55
2022/05/10 02:30:34;;;;;;;2.40;2.20;;;;;;;21.16;33.06;95504.91;6199965;28;103881;-55
2022/05/10 02:33:37;;;;;;;2.60;2.40;;;;;;;21.15;33.18;95500.69;6200097;28;105344;-56
2022/05/10 02:36:39;;;;;;;4.10;2.47;;;;;;;21.17;33.23;95495.84;6203821;28;104312;-55
2022/05/10 02:39:40;;;;;;;2.50;2.07;;;;;;;21.13;33.10;95498.31;6204089;28;103901;-55
2022/05/10 02:42:47;;;;;;;3.10;2.33;;;;;;;21.16;33.10;95496.94;6193919;28;103791;-56
2022/05/10 02:45:50;;;;;;;2.67;2.47;;;;;;;21.16;33.30;95492.41;6204662;28;103797;-55
2022/05/10 02:48:53;;;;;;;2.50;2.30;;;;;;;21.13;33.01;95494.84;6203381;28;104929;-55
2022/05/10 02:51:56;;;;;;;2.60;2.40;;;;;;;21.09;32.96;95494.63;6178569;28;104781;-56
2022/05/10 02:55:00;;;;;;;2.63;2.37;;;;;;;21.14;33.26;95501.75;6192152;28;103790;-56
2022/05/10 02:58:10;;;;;;;2.33;2.13;;;;;;;21.11;33.10;95505.78;6203453;28;103874;-55
2022/05/10 03:01:20;;;;;;;3.93;2.50;;;;;;;21.09;33.32;95499.97;6208354;28;103640;-56
2022/05/10 03:04:22;;;;;;;2.57;2.37;;;;;;;21.14;32.83;95507.06;6188732;28;105307;-56
2022/05/10 03:07:29;;;;;;;2.53;1.80;;;;;;;21.16;33.46;95504.91;6203843;28;104898;-56
2022/05/10 03:10:32;;;;;;;2.77;2.57;;;;;;;21.21;33.42;95496.88;6207266;28;103977;-55
2022/05/10 03:13:34;;;;;;;3.20;2.57;;;;;;;21.21;33.57;95503.00;6203943;28;104778;-55
2022/05/10 03:16:36;;;;;;;2.73;2.23;;;;;;;21.26;33.38;95506.66;6197448;28;103562;-55
2022/05/10 03:19:39;;;;;;;2.33;2.13;;;;;;;21.25;33.46;95503.19;6190117;28;104263;-55
2022/05/10 03:22:40;;;;;;;3.07;2.37;;;;;;;21.28;33.86;95505.28;6202465;28;105287;-56
2022/05/10 03:25:42;;;;;;;3.40;2.30;;;;;;;21.31;33.60;95501.25;6207679;28;104774;-56
2022/05/10 03:28:44;;;;;;;3.30;2.20;;;;;;;21.31;33.60;95498.59;6192708;28;104726;-56
2022/05/10 03:31:46;;;;;;;2.60;2.40;;;;;;;21.32;33.96;95516.13;6204851;28;103830;-56
2022/05/10 03:34:59;;;;;;;2.80;2.13;;;;;;;21.28;33.90;95513.25;6207855;28;104668;-56
2022/05/10 03:38:02;;;;;;;6.70;3.10;;;;;;;21.26;34.15;95512.75;6205534;28;104958;-59
2022/05/10 03:41:04;;;;;;;5.20;3.00;;;;;;;21.30;34.31;95521.75;6191457;28;104057;-57
2022/05/10 03:44:06;;;;;;;4.90;2.47;;;;;;;21.20;33.88;95519.25;6208924;28;105087;-58
2022/05/10 03:47:10;;;;;;;2.67;2.00;;;;;;;21.13;33.76;95524.91;6206026;28;103500;-59
2022/05/10 03:50:13;;;;;;;4.03;2.47;;;;;;;21.06;33.37;95523.69;6190475;28;104643;-58
2022/05/10 03:53:15;;;;;;;4.40;2.77;;;;;;;21.15;34.07;95532.59;6202853;28;103694;-59
2022/05/10 03:56:17;;;;;;;4.83;3.03;;;;;;;21.21;33.82;95537.59;6192809;28;103971;-59
2022/05/10 03:59:20;;;;;;;3.13;2.50;;;;;;;21.26;33.74;95539.38;6205081;28;103742;-59
2022/05/10 04:02:21;;;;;;;3.70;2.63;;;;;;;21.30;33.68;95535.06;6191703;28;103800;-58
2022/05/10 04:05:25;;;;;;;5.87;2.73;;;;;;;21.34;33.63;95544.06;6199943;28;104793;-57
2022/05/10 04:08:27;;;;;;;3.70;2.40;;;;;;;21.33;33.47;95542.47;6200229;28;104760;-58
2022/05/10 04:11:29;;;;;;;3.50;2.90;;;;;;;21.34;34.04;95540.59;6197060;28;103807;-59
2022/05/10 04:14:31;;;;;;;8.57;2.80;;;;;;;21.42;33.97;95547.94;6184304;28;104967;-58
2022/05/10 04:17:32;;;;;;;7.50;4.00;;;;;;;21.36;33.81;95547.22;6187537;28;103572;-59
2022/05/10 04:20:34;;;;;;;4.40;3.57;;;;;;;21.34;34.20;95549.41;6197821;28;104782;-59
2022/05/10 04:23:36;;;;;;;14.03;3.10;;;;;;;21.32;34.15;95543.53;6199491;28;104034;-59
2022/05/10 04:26:44;;;;;;;5.13;3.00;;;;;;;21.19;33.82;95541.63;6203612;28;104017;-58
2022/05/10 04:29:46;;;;;;;4.43;3.13;;;;;;;21.13;34.34;95548.06;6208763;28;105132;-59
2022/05/10 04:32:49;;;;;;;3.20;2.47;;;;;;;21.20;34.03;95541.34;6208283;28;105034;-59
2022/05/10 04:35:51;;;;;;;3.70;3.13;;;;;;;21.19;34.89;95545.06;6181674;28;104879;-59
2022/05/10 04:38:52;;;;;;;4.70;3.10;;;;;;;21.19;34.71;95545.06;6206142;28;103584;-59
2022/05/10 04:41:54;;;;;;;5.40;2.60;;;;;;;21.16;34.66;95550.16;6206046;28;103713;-59
2022/05/10 04:44:56;;;;;;;6.00;2.90;;;;;;;21.15;34.30;95544.03;6206618;28;104936;-59
2022/05/10 04:47:59;;;;;;;5.33;2.70;;;;;;;21.17;34.22;95541.91;6195451;28;104963;-59
2022/05/10 04:51:03;;;;;;;2.87;2.60;;;;;;;21.19;34.33;95549.59;6205681;28;103763;-59
2022/05/10 04:54:06;;;;;;;5.33;2.63;;;;;;;21.15;34.33;95551.25;6207564;28;103744;-58
2022/05/10 04:57:07;;;;;;;4.90;2.60;;;;;;;21.16;34.25;95555.47;6208383;28;103701;-58
2022/05/10 05:00:13;;;;;;;4.70;2.20;;;;;;;21.17;34.31;95555.22;6211928;28;104133;-59
2022/05/10 05:03:14;;;;;;;2.70;2.50;;;;;;;21.20;34.31;95554.63;6207591;28;103846;-58
2022/05/10 05:06:17;;;;;;;4.40;2.40;;;;;;;21.22;34.55;95559.69;6208283;28;105166;-58
2022/05/10 05:09:19;;;;;;;3.80;2.10;;;;;;;21.17;34.32;95549.91;6202032;28;103766;-59
2022/05/10 05:12:20;;;;;;;5.07;2.70;;;;;;;21.17;34.67;95546.41;6202887;28;105351;-58
2022/05/10 05:15:22;;;;;;;2.63;2.43;;;;;;;21.17;34.63;95547.22;6208429;28;103588;-59
2022/05/10 05:18:24;;;;;;;4.60;2.70;;;;;;;21.18;34.74;95553.34;6207622;28;104210;-59
2022/05/10 05:21:26;;;;;;;4.13;2.60;;;;;;;21.20;34.88;95553.84;6196770;28;103780;-59
2022/05/10 05:24:27;;;;;;;4.70;2.93;;;;;;;21.19;34.82;95557.59;6207097;28;103730;-59
2022/05/10 05:27:29;;;;;;;6.23;2.20;;;;;;;21.19;34.58;95549.59;6207775;28;103820;-59
2022/05/10 05:30:32;;;;;;;2.70;2.50;;;;;;;21.22;34.47;95549.03;6208345;28;103873;-59
2022/05/10 05:33:34;;;;;;;4.00;2.57;;;;;;;21.27;34.87;95556.16;6196854;28;103676;-59
2022/05/10 05:36:36;;;;;;;2.63;2.43;;;;;;;21.31;34.57;95552.59;6207900;28;104756;-59
2022/05/10 05:39:37;;;;;;;3.20;2.73;;;;;;;21.39;34.28;95549.31;6207597;28;103954;-59
2022/05/10 05:42:40;;;;;;;6.20;2.60;;;;;;;21.44;34.46;95551.09;6207520;28;104022;-59
2022/05/10 05:45:41;;;;;;;2.90;2.63;;;;;;;21.51;34.07;95541.69;6197385;28;104964;-58
2022/05/10 05:48:43;;;;;;;4.83;2.70;;;;;;;21.57;34.59;95553.03;6207457;28;104916;-59
2022/05/10 05:51:45;;;;;;;4.27;2.80;;;;;;;21.64;34.23;95550.00;6207908;28;103859;-59
2022/05/10 05:54:47;;;;;;;4.80;3.10;;;;;;;21.68;33.97;95553.69;6201356;28;103944;-59
2022/05/10 05:57:48;;;;;;;2.97;2.67;;;;;;;21.72;34.25;95544.03;6204713;28;106517;-59
2022/05/10 06:00:50;;;;;;;3.17;2.43;;;;;;;21.76;33.95;95547.69;6206654;28;105538;-60
2022/05/10 06:03:55;;;;;;;3.17;2.70;;;;;;;21.80;34.20;95546.81;6206389;28;103638;-59
2022/05/10 06:06:57;;;;;;;2.90;2.63;;;;;;;21.85;34.18;95548.66;6196219;28;105616;-59
2022/05/10 06:09:59;;;;;;;2.77;2.57;;;;;;;21.90;33.99;95550.44;6206638;28;104993;-59
2022/05/10 06:13:01;;;;;;;4.60;3.10;;;;;;;21.92;34.03;95534.94;6206675;28;105025;-59
2022/05/10 06:16:08;;;;;;;3.47;2.40;;;;;;;21.98;33.59;95545.22;6205137;28;104711;-59
2022/05/10 06:19:11;;;;;;;2.97;2.63;;;;;;;22.02;33.63;95543.56;6194873;28;103674;-59
2022/05/10 06:22:14;;;;;;;3.03;2.50;;;;;;;22.05;33.63;95545.66;6206603;28;103737;-60
2022/05/10 06:25:20;;;;;;;3.00;2.70;;;;;;;22.09;34.16;95546.63;6206215;28;104878;-59
2022/05/10 06:28:21;;;;;;;2.60;2.30;;;;;;;22.14;33.66;95544.97;6201880;28;103877;-59
2022/05/10 06:31:23;;;;;;;2.70;2.50;;;;;;;22.17;33.91;95549.69;6200949;28;105411;-59
2022/05/10 06:34:25;;;;;;;3.07;2.60;;;;;;;22.20;33.58;95541.94;6209897;28;103753;-59
2022/05/10 06:40:47;;;;;;;3.40;3.10;;;;;;;22.26;33.59;95539.94;6200003;28;103735;-59
2022/05/10 06:43:49;;;;;;;3.97;3.03;;;;;;;22.28;34.54;95538.56;6210896;28;104778;-58
2022/05/10 06:46:51;;;;;;;3.10;2.80;;;;;;;22.30;34.17;95536.41;6210481;28;104092;-60
2022/05/10 06:49:53;;;;;;;3.20;2.70;;;;;;;22.35;34.02;95538.19;6209847;28;105060;-59
2022/05/10 06:53:00;;;;;;;3.90;2.87;;;;;;;22.38;34.20;95538.41;6200037;27;104091;-59
2022/05/10 06:56:03;;;;;;;6.63;2.60;;;;;;;22.43;34.02;95545.50;6210933;28;104773;-59
2022/05/10 06:59:05;;;;;;;3.40;3.00;;;;;;;22.46;34.10;95536.13;6210667;28;104241;-59
2022/05/10 07:02:07;;;;;;;3.00;2.60;;;;;;;22.48;33.82;95537.41;6208255;28;104995;-60
2022/05/10 07:05:10;;;;;;;3.60;3.13;;;;;;;22.52;33.89;95538.41;6202243;28;104944;-59
2022/05/10 07:08:12;;;;;;;3.13;2.80;;;;;;;22.55;33.81;95545.03;6210322;28;105019;-59
2022/05/10 07:11:14;;;;;;;5.57;3.13;;;;;;;22.57;34.08;95537.53;6210268;28;104092;-59
2022/05/10 07:14:16;;;;;;;4.10;3.20;;;;;;;22.60;34.31;95532.41;6201035;28;104487;-59
2022/05/10 07:17:18;;;;;;;5.90;3.77;;;;;;;22.62;34.07;95527.56;6209848;28;104729;-60
2022/05/10 07:20:20;;;;;;;4.40;3.00;;;;;;;22.66;33.66;95533.06;6210206;28;104768;-59
2022/05/10 07:23:26;;;;;;;4.47;3.70;;;;;;;22.73;34.14;95527.38;6209860;28;103884;-58
2022/05/10 07:26:27;;;;;;;4.20;3.50;;;;;;;22.75;33.91;95531.31;6198933;28;104062;-59
2022/05/10 07:29:29;;;;;;;3.93;3.53;;;;;;;22.74;34.00;95537.75;6209476;28;104043;-58
2022/05/10 07:32:31;;;;;;;3.23;3.00;;;;;;;22.76;34.30;95526.75;6209551;28;103977;-59
2022/05/10 07:38:53;;;;;;;3.70;3.40;;;;;;;22.79;33.95;95526.94;6198130;28;104281;-59
2022/05/10 07:41:55;;;;;;;3.60;3.30;;;;;;;22.79;33.89;95526.94;6209794;28;103626;-59
2022/05/10 07:44:57;;;;;;;3.90;3.60;;;;;;;22.79;34.51;95528.84;6209105;28;104057;-59
2022/05/10 07:47:58;;;;;;;3.10;2.90;;;;;;;22.79;34.25;95521.63;6204422;28;103968;-59
2022/05/10 07:51:02;;;;;;;4.60;3.30;;;;;;;22.83;34.09;95521.81;6203987;28;104043;-59
2022/05/10 07:54:05;;;;;;;3.90;3.50;;;;;;;22.85;34.33;95531.13;6209128;28;103703;-59
2022/05/10 07:57:07;;;;;;;4.37;3.90;;;;;;;22.85;34.16;95524.97;6209784;28;103444;-59
2022/05/10 08:00:09;;;;;;;5.10;3.97;;;;;;;22.85;34.13;95519.63;6198409;28;103618;-59
2022/05/10 08:03:15;;;;;;;4.97;3.97;;;;;;;22.85;34.28;95528.44;6208959;28;103729;-59
2022/05/10 08:06:17;;;;;;;4.27;3.67;;;;;;;22.84;34.46;95523.38;6208947;28;104747;-58
2022/05/10 08:09:19;;;;;;;4.73;3.63;;;;;;;22.86;34.72;95519.34;6209672;28;104843;-59
2022/05/10 08:12:21;;;;;;;8.00;4.00;;;;;;;22.87;34.29;95512.91;6199080;28;105283;-58
2022/05/10 08:15:23;;;;;;;5.67;3.73;;;;;;;22.87;34.79;95515.59;6208493;28;103889;-58
2022/05/10 08:18:25;;;;;;;5.27;4.27;;;;;;;22.88;34.44;95513.72;6209245;28;104970;-59
2022/05/10 08:21:27;;;;;;;4.93;3.93;;;;;;;22.87;34.50;95506.78;6208104;28;103618;-58
2022/05/10 08:24:28;;;;;;;4.50;3.80;;;;;;;22.89;34.45;95509.94;6198835;28;104864;-59
2022/05/10 08:27:30;;;;;;;4.57;3.73;;;;;;;22.86;35.02;95500.66;6208491;28;103851;-59
2022/05/10 08:30:32;;;;;;;5.50;4.20;;;;;;;22.89;34.46;95501.94;6207772;28;103895;-58
2022/05/10 08:33:37;;;;;;;3.90;3.60;;;;;;;22.88;34.94;95501.16;6202359;28;103885;-58
2022/05/10 08:36:38;;;;;;;5.00;3.60;;;;;;;22.90;34.42;95506.19;6204305;28;104568;-59
2022/05/10 08:39:40;;;;;;;4.90;4.17;;;;;;;22.91;34.69;95497.09;6208230;28;103635;-58
2022/05/10 08:42:48;;;;;;;5.30;3.87;;;;;;;22.91;34.52;95495.22;6208380;28;103997;-58
2022/05/10 08:45:52;;;;;;;4.97;4.47;;;;;;;22.92;34.91;95498.69;6198266;28;104689;-59
2022/05/10 08:49:06;;;;;;;4.40;4.00;;;;;;;22.92;35.00;95498.69;6207789;28;104779;-59
2022/05/10 08:52:12;;;;;;;4.70;4.30;;;;;;;22.90;34.39;95495.53;6208202;28;104248;-58
2022/05/10 08:55:25;;;;;;;4.30;3.90;;;;;;;22.91;34.95;95492.56;6207600;28;104924;-59
2022/05/10 08:59:10;;;;;;;4.60;4.13;;;;;;;22.90;34.60;95490.19;6197497;28;105067;-59
2022/05/10 09:02:17;;;;;;;4.73;4.20;;;;;;;22.92;34.43;95494.13;6184687;28;105023;-59
2022/05/10 09:05:22;;;;;;;4.30;3.50;;;;;;;22.89;34.56;95486.72;6207837;28;104768;-60
2022/05/10 09:08:25;;;;;;;4.03;3.63;;;;;;;22.89;34.84;95484.06;6197871;28;104823;-59
2022/05/10 09:11:31;;;;;;;10.50;3.97;;;;;;;22.89;34.57;95486.72;6207997;28;103731;-59
2022/05/10 09:14:37;;;;;;;4.70;3.07;;;;;;;22.89;34.85;95485.94;6207870;28;105048;-60
2022/05/10 09:17:39;;;;;;;3.90;3.60;;;;;;;22.89;34.83;95480.59;6208351;28;104567;-59
2022/05/10 09:20:50;;;;;;;5.00;4.10;;;;;;;22.89;34.53;95483.25;6198319;28;105016;-59
2022/05/10 09:24:29;;;;;;;4.47;4.03;;;;;;;22.88;34.61;95482.47;6207913;28;104740;-59
2022/05/10 09:27:34;;;;;;;5.13;3.73;;;;;;;22.89;34.71;95472.59;6207797;28;104631;-59
2022/05/10 09:30:36;;;;;;;4.10;3.70;;;;;;;22.88;35.14;95476.34;6197377;28;103764;-60
2022/05/10 09:37:16;;;;;;;4.47;3.80;;;;;;;22.87;34.96;95472.09;6207118;28;103889;-59
2022/05/10 09:40:19;;;;;;;4.33;3.67;;;;;;;22.86;34.66;95468.66;6207534;28;103803;-59
2022/05/10 09:43:38;;;;;;;4.13;3.73;;;;;;;22.85;35.21;95467.06;6195949;28;102974;-59
2022/05/10 09:46:39;;;;;;;6.00;3.90;;;;;;;22.85;35.33;95458.25;6207118;28;103715;-59
2022/05/10 09:49:41;;;;;;;5.73;4.10;;;;;;;22.84;34.88;95456.66;6206426;28;103663;-61
2022/05/10 09:52:44;;;;;;;4.83;3.90;;;;;;;22.83;34.88;95449.75;6202732;28;104795;-61
2022/05/10 09:56:10;;;;;;;5.73;4.40;;;;;;;22.83;35.40;95453.22;6201771;28;103690;-61
2022/05/10 09:59:11;;;;;;;4.33;3.93;;;;;;;22.81;34.95;95449.28;6207357;28;104889;-60
2022/05/10 10:02:32;;;;;;;4.53;4.13;;;;;;;22.81;35.28;95443.94;6206877;28;103683;-61
2022/05/10 10:05:36;;;;;;;4.47;4.00;;;;;;;22.79;35.25;95441.56;6196583;28;105425;-61
2022/05/10 10:08:44;;;;;;;4.27;3.87;;;;;;;22.79;34.84;95435.44;6206974;28;103772;-61
2022/05/10 10:11:46;;;;;;;6.00;4.20;;;;;;;22.78;35.19;95441.88;6207370;28;104871;-61
2022/05/10 10:14:48;;;;;;;4.13;3.70;;;;;;;22.76;34.93;95436.03;6206787;28;105044;-61
2022/05/10 10:17:56;;;;;;;3.67;3.37;;;;;;;22.76;35.13;95428.84;6196807;28;104086;-60
2022/05/10 10:20:58;;;;;;;4.90;4.50;;;;;;;22.76;35.03;95422.72;6207106;28;102761;-61
2022/05/10 10:24:01;;;;;;;3.87;3.57;;;;;;;22.74;35.36;95422.22;6207056;28;104762;-61
2022/05/10 10:27:08;;;;;;;4.63;4.00;;;;;;;22.79;35.04;95414.09;6200918;28;103591;-61
2022/05/10 10:30:31;;;;;;;4.27;3.87;;;;;;;22.84;34.89;95411.31;6204982;28;103863;-61
2022/05/10 10:33:43;;;;;;;4.43;4.03;;;;;;;22.83;34.91;95410.50;6206414;28;103921;-61
2022/05/10 10:37:01;;;;;;;4.17;3.87;;;;;;;22.79;35.43;95401.53;6206587;28;103815;-61
2022/05/10 10:40:24;;;;;;;4.60;3.90;;;;;;;22.75;35.50;95405.13;6196301;28;105021;-61
2022/05/10 10:43:41;;;;;;;4.33;4.00;;;;;;;22.74;35.32;95398.22;6206126;28;104964;-61
2022/05/10 10:46:54;;;;;;;5.20;4.70;;;;;;;22.72;35.43;95393.19;6206576;28;103814;-61
2022/05/10 10:50:29;;;;;;;5.30;4.80;;;;;;;22.73;34.83;95391.28;6198747;28;103868;-61
2022/05/10 10:53:34;;;;;;;5.07;4.50;;;;;;;22.68;35.14;95395.66;6195686;28;104109;-61
2022/05/10 10:56:51;;;;;;;4.90;3.93;;;;;;;22.65;34.90;95390.13;6205959;28;103644;-61
2022/05/10 11:00:20;;;;;;;4.60;4.20;;;;;;;22.66;35.31;95383.69;6206422;28;103605;-61
2022/05/10 11:03:34;;;;;;;4.30;3.87;;;;;;;22.65;35.42;95380.22;6193696;28;104605;-61
2022/05/10 11:06:50;;;;;;;4.23;3.83;;;;;;;22.66;34.78;95379.13;6206218;28;104156;-61
2022/05/10 11:10:23;;;;;;;5.00;4.50;;;;;;;22.64;35.33;95370.66;6206238;28;104958;-61
2022/05/10 11:13:36;;;;;;;7.10;4.47;;;;;;;22.64;34.77;95367.19;6186993;28;103831;-62
2022/05/10 11:16:43;;;;;;;4.23;3.83;;;;;;;22.64;34.81;95364.53;6205858;28;103987;-61
2022/05/10 11:20:22;;;;;;;4.50;4.10;;;;;;;22.60;34.93;95364.34;6208409;28;105003;-61
2022/05/10 11:23:47;;;;;;;3.80;3.50;;;;;;;22.60;34.87;95348.34;6206511;28;104966;-60
2022/05/10 11:26:52;;;;;;;4.03;3.73;;;;;;;22.60;35.16;95356.34;6204606;28;103873;-57
2022/05/10 11:30:12;;;;;;;4.43;4.03;;;;;;;22.65;35.08;95344.78;6209840;28;103783;-57
2022/05/10 11:33:29;;;;;;;3.80;3.50;;;;;;;22.66;34.87;95336.47;6209399;28;103958;-57
2022/05/10 11:36:42;;;;;;;4.43;4.03;;;;;;;22.67;34.63;95343.38;6199032;28;103847;-57
2022/05/10 11:40:01;;;;;;;5.10;3.83;;;;;;;22.66;34.72;95331.13;6209431;28;103851;-57
2022/05/10 11:43:32;;;;;;;4.23;3.83;;;;;;;22.66;34.45;95333.78;6208613;28;103951;-57
2022/05/10 11:46:43;;;;;;;4.37;4.07;;;;;;;22.65;35.10;95326.88;6204315;28;104840;-57
2022/05/10 11:49:55;;;;;;;4.30;3.90;;;;;;;22.65;34.54;95324.22;6206589;28;104823;-60
2022/05/10 11:53:15;;;;;;;3.73;3.37;;;;;;;22.65;34.71;95318.88;6209254;28;105102;-59
2022/05/10 11:56:17;;;;;;;4.30;3.90;;;;;;;22.65;34.55;95324.22;6209132;28;103784;-59
2022/05/10 11:59:25;;;;;;;4.63;4.20;;;;;;;22.64;35.06;95313.84;6198108;28;104744;-62
2022/05/10 12:02:29;;;;;;;4.17;3.87;;;;;;;22.63;35.07;95310.41;6208539;28;103741;-60
2022/05/10 12:05:33;;;;;;;3.73;3.40;;;;;;;22.64;34.81;95305.84;6208588;28;104830;-59
2022/05/10 12:08:35;;;;;;;3.67;3.47;;;;;;;22.63;34.77;95294.38;6208111;28;104862;-55
2022/05/10 12:11:39;;;;;;;3.97;3.60;;;;;;;22.64;34.59;95293.28;6200720;28;104902;-59
2022/05/10 12:21:53;;;;;;;4.13;3.83;;;;;;;22.63;35.11;95278.38;6197996;28;103869;-59
2022/05/10 12:24:54;;;;;;;3.50;3.23;;;;;;;22.62;34.98;95270.69;6208620;28;103966;-58
2022/05/10 12:27:58;;;;;;;3.53;3.23;;;;;;;22.61;35.17;95274.44;6208597;28;105038;-60
2022/05/10 12:31:00;;;;;;;4.07;3.77;;;;;;;22.63;35.03;95275.72;6207380;28;105109;-60
2022/05/10 12:34:09;;;;;;;3.50;3.20;;;;;;;22.63;34.82;95269.59;6198060;28;105851;-58
2022/05/10 12:37:49;;;;;;;3.63;3.33;;;;;;;22.61;34.95;95263.78;6208503;28;103678;-59
2022/05/10 12:41:05;;;;;;;4.13;3.77;;;;;;;22.62;35.06;95260.81;6206700;28;104968;-60
2022/05/10 12:44:33;;;;;;;3.73;3.43;;;;;;;22.64;35.07;95255.16;6197885;28;103868;-60
2022/05/10 12:47:56;;;;;;;3.80;3.43;;;;;;;22.63;35.12;95251.72;6169559;28;104086;-60
2022/05/10 12:51:15;;;;;;;4.30;3.90;;;;;;;22.63;35.07;95254.38;6207027;28;103894;-63
2022/05/10 12:54:25;;;;;;;3.83;3.50;;;;;;;22.64;35.02;95250.63;6202924;28;105028;-59
2022/05/10 12:57:52;;;;;;;4.80;3.80;;;;;;;22.63;34.76;95245.59;6202503;28;103802;-59
2022/05/10 13:00:57;;;;;;;3.27;3.07;;;;;;;22.62;35.16;95242.13;6207600;28;103696;-60
2022/05/10 13:04:06;;;;;;;3.60;3.30;;;;;;;22.61;34.82;95243.22;6207547;28;103735;-59
2022/05/10 13:07:43;;;;;;;3.60;3.30;;;;;;;22.61;34.79;95248.56;6196708;28;103632;-59
2022/05/10 13:10:45;;;;;;;3.23;3.03;;;;;;;22.62;34.58;95238.69;6206234;28;103925;-60
2022/05/10 13:13:49;;;;;;;3.83;3.43;;;;;;;22.60;34.63;95241.66;6207691;28;103771;-60
2022/05/10 13:16:54;;;;;;;3.37;3.07;;;;;;;22.60;34.60;95236.31;6202800;28;104005;-58
2022/05/10 13:19:58;;;;;;;3.40;3.10;;;;;;;22.60;35.07;95238.97;6202130;28;103666;-59
2022/05/10 13:23:03;;;;;;;3.90;3.50;;;;;;;22.59;34.94;95240.09;6207544;28;103842;-59
2022/05/10 13:26:07;;;;;;;4.03;3.67;;;;;;;22.59;34.85;95237.41;6207644;28;104557;-60
2022/05/10 13:29:09;;;;;;;3.63;3.30;;;;;;;22.58;34.92;95235.84;6196839;28;103771;-60
2022/05/10 13:32:42;;;;;;;3.70;3.43;;;;;;;22.58;35.21;95233.16;6206606;28;103822;-59
2022/05/10 13:35:48;;;;;;;3.60;3.30;;;;;;;22.59;34.57;95233.97;6207562;28;104801;-59
2022/05/10 13:38:56;;;;;;;3.80;3.50;;;;;;;22.57;34.94;95231.59;6206336;28;105334;-57
2022/05/10 13:42:03;;;;;;;3.70;3.50;;;;;;;22.57;34.87;95236.94;6196030;28;103849;-59
2022/05/10 13:45:05;;;;;;;4.17;3.80;;;;;;;22.56;35.15;95227.31;6207324;28;105281;-59
2022/05/10 13:48:12;;;;;;;4.10;3.80;;;;;;;22.55;34.78;95224.97;6205517;28;105016;-58
2022/05/10 13:51:21;;;;;;;4.33;3.30;;;;;;;22.54;35.26;95226.84;6202237;28;104946;-59
2022/05/10 13:54:39;;;;;;;3.70;3.30;;;;;;;22.54;34.89;95226.06;6201034;28;104812;-59
2022/05/10 13:57:53;;;;;;;3.90;3.60;;;;;;;22.53;34.91;95221.81;6207240;28;104920;-59
2022/05/10 14:00:55;;;;;;;4.87;3.90;;;;;;;22.52;34.98;95233.56;6206348;28;104082;-59
2022/05/10 14:04:05;;;;;;;3.50;3.30;;;;;;;22.50;35.23;95225.84;6195515;28;104691;-59
2022/05/10 14:07:12;;;;;;;4.00;3.70;;;;;;;22.49;34.81;95226.94;6206742;28;103842;-59
2022/05/10 14:10:17;;;;;;;3.77;3.47;;;;;;;22.50;35.22;95231.19;6205890;28;104162;-59
2022/05/10 14:13:21;;;;;;;3.90;3.40;;;;;;;22.49;35.12;95226.16;6206481;28;103764;-59
2022/05/10 14:16:39;;;;;;;3.70;3.40;;;;;;;22.48;35.19;95219.25;6197441;28;105761;-59
2022/05/10 14:19:46;;;;;;;3.83;3.53;;;;;;;22.48;35.10;95219.25;6206132;28;103665;-59
2022/05/10 14:22:50;;;;;;;3.80;3.50;;;;;;;22.47;35.17;95226.47;6206160;28;103834;-59
2022/05/10 14:25:57;;;;;;;3.93;3.30;;;;;;;22.49;35.26;95226.16;6194809;28;103869;-59
2022/05/10 14:29:11;;;;;;;4.30;3.90;;;;;;;22.46;34.67;95224.88;6205863;28;103492;-59
2022/05/10 14:32:20;;;;;;;3.80;3.53;;;;;;;22.47;34.86;95229.13;6204740;28;103862;-59
2022/05/10 14:35:32;;;;;;;4.00;3.70;;;;;;;22.47;34.73;95228.34;6181445;28;103691;-59
2022/05/10 14:38:35;;;;;;;3.57;3.27;;;;;;;22.48;34.91;95228.03;6187529;28;103530;-59
2022/05/10 14:41:43;;;;;;;4.00;3.70;;;;;;;22.47;35.24;95231.00;6206236;28;104933;-59
2022/05/10 14:44:45;;;;;;;3.93;3.63;;;;;;;22.45;35.14;95228.66;6206314;28;104915;-59
2022/05/10 14:47:47;;;;;;;3.87;3.57;;;;;;;22.46;35.08;95237.44;6201126;28;104759;-60